Aeroporto :
LOGIN :

Iscrizione | Disclaimer

   EN    FR    IT 

 










Sommario :    VFR   VFR Marginale   IFR   IFR Intensivo   IFR Molto Intensivo
Visibilità : 
Base nubi : 
>= 8 km
>= 3000ft
5 / 8 km
1000 / 3000 ft
1500m / 5 km
500 / 1000 ft
800 / 1500m
200 / 500 ft
< 800m
< 200 ft
Simboli :   Temporali  Nebbia  Neve Forte  Precipitazioni Forti  Vento > 20 kt
SIGMETs :   Varie  Temporali  Ghiacco  Turbolenza  Onda orograficha  Ceneri Vulcaniche






- Altitudine del aeroporto : 796 ft
- Codice IATA : SYT


LFLN - Saint-Yan

ULTIMO METAR :
  • 051500Z AUTO 19005KT 150V230 9999 SCT049 BKN062 OVC140 23/13 Q1011 NOSIG

METARs OBSOLETI :
  • 051430Z AUTO 19006KT 160V240 9999 SCT047 BKN064 BKN140 23/13 Q1011 NOSIG
  • 051400Z AUTO 24005KT 190V280 CAVOK 23/14 Q1012 NOSIG
  • 051330Z AUTO 28004KT 200V320 9999 FEW046 BKN064 22/14 Q1012 NOSIG
  • 051300Z AUTO 30007KT 270V340 9999 FEW035 SCT043 BKN052 22/13 Q1012 NOSIG
  • 051230Z AUTO 25008KT 190V300 9999 BKN034 OVC041 22/13 Q1013 NOSIG
  • 051200Z AUTO 24006KT 200V290 9999 BKN033 BKN039 BKN047 22/14 Q1013 NOSIG

TAF TAF LFLN
Valido dal 05 a 15 ore il 06 a 00 ore UTC


051400Z 0515/0524 26006KT 9999 SCT040 BKN060
PROB40
TEMPO 0518/0521 4000 SHRA FEW030TCU BKN040



MetMap, La meteo Aeronautica in un colpo d'occhio ! - Copyright ORBIFLY Dicembre 2007 - Disclaimer

ORBIFLY MET'MAP TEAM :

Programmazione e sviluppo : Alexandra Zaïnal
Concezione : Baudouin d'Aumeries
Aiuto per la programmazione : Marc-Olivier Méhu
Supporto tecnico e logistico : Manuel Goepfert
Aiuto per la traduzione : Arnaldo La Scala

Contatto : metmap@orbifly.com




FONTI E CREDITI :

   NOAA